Flight Track Log - Related Links

Times and Time Zones

All times are in EDT time to prevent confusion due to time zone crossing. See the AWE1525 flight status page for this flight to view local times or setup timezone preferences in your user account.

Time Position Orientation Groundspeed Altitude Reporting Facility
EDT Latitude Longitude Course Direction KTS MPH feet Rate Location/Type
Tue 06:55:33 PM 43.1097 -76.1292 213° Southwest 126 145 1,000  Level Boston Center
Tue 06:56:03 PM 43.1067 -76.1575 262° West 157 181 2,600 3,099 Climbing Boston Center
Tue 06:57:04 PM 43.0981 -76.2281 261° West 192 221 5,700 2,155 Climbing Boston Center
Tue 06:59:00 PM 42.7750 -76.4886 213° Southwest  Level FlightAware Approximate
Tue 06:59:29 PM 42.9589 -76.3725 217° Southwest 278 320 10,000  Level New York Center
Tue 07:00:00 PM 42.6834 -76.5687 213° Southwest  Level FlightAware Approximate
Tue 07:00:30 PM 42.8683 -76.4411 209° Southwest 338 389 10,100  Level New York Center
Tue 07:01:31 PM 42.7733 -76.5147 210° Southwest 371 427 13,100 3,102 Climbing New York Center
Tue 07:02:28 PM 42.6761 -76.5878 209° Southwest 397 457 16,200 1,966 Climbing New York Center
Tue 07:03:30 PM 42.5722 -76.6658 209° Southwest 417 480 17,000 590 Climbing New York Center
Tue 07:04:30 PM 42.4728 -76.7411 209° Southwest 423 487 17,400 1,488 Climbing New York Center
Tue 07:05:31 PM 42.3689 -76.8217 210° Southwest 429 494 20,000 2,231 Climbing New York Center
Tue 07:06:31 PM 42.2586 -76.9011 208° Southwest 440 506 21,900 1,983 Climbing New York Center
Tue 07:07:29 PM 42.1372 -76.9933 209° Southwest 446 513 23,900 1,881 Climbing New York Center
Tue 07:08:29 PM 42.0242 -77.0831 211° Southwest 464 534 25,600 1,033 Climbing New York Center
Tue 07:09:31 PM 41.9133 -77.1731 211° Southwest 470 541 26,000 202 Climbing New York Center
Tue 07:10:28 PM 41.8039 -77.2681 213° Southwest 475 547 26,000  Level New York Center
Tue 07:11:29 PM 41.6950 -77.3575 212° Southwest 475 547 26,000  Level New York Center
Tue 07:12:29 PM 41.5878 -77.4469 212° Southwest 469 540 26,000  Level New York Center
Tue 07:13:30 PM 41.4808 -77.5361 212° Southwest 464 534 26,000  Level New York Center
Tue 07:15:19 PM 41.2817 -77.6983 211° Southwest 468 539 26,000  Level Cleveland Center
Tue 07:16:19 PM 41.1711 -77.7858 211° Southwest 468 539 26,000  Level Cleveland Center
Tue 07:17:19 PM 41.0650 -77.8731 212° Southwest 468 539 26,000  Level Cleveland Center
Tue 07:18:19 PM 40.9564 -77.9600 211° Southwest 468 539 26,000  Level Cleveland Center
Tue 07:19:19 PM 40.8672 -78.0708 223° Southwest 456 525 26,000  Level Cleveland Center
Tue 07:20:19 PM 40.7864 -78.1917 229° Southwest 444 511 26,000  Level Cleveland Center
Tue 07:21:19 PM 40.7097 -78.3150 231° Southwest 438 504 26,000  Level Cleveland Center
Tue 07:22:19 PM 40.6267 -78.4436 230° Southwest 452 520 26,000  Level Cleveland Center
Tue 07:23:19 PM 40.5414 -78.5722 229° Southwest 462 532 26,000  Level Cleveland Center
Tue 07:24:19 PM 40.4603 -78.6975 230° Southwest 467 537 26,000  Level Cleveland Center
Tue 07:25:19 PM 40.3767 -78.8253 229° Southwest 467 537 26,000  Level Cleveland Center
Tue 07:26:19 PM 40.2911 -78.9553 229° Southwest 467 537 26,000  Level Cleveland Center
Tue 07:27:19 PM 40.2075 -79.0825 229° Southwest 467 537 26,000  Level Cleveland Center
Tue 07:28:19 PM 40.1214 -79.2092 228° Southwest 467 537 26,000  Level Cleveland Center
Tue 07:29:19 PM 40.0497 -79.3247 231° Southwest 467 537 26,000  Level Cleveland Center
Tue 07:30:19 PM 39.9656 -79.4536 230° Southwest 467 537 26,000  Level Cleveland Center
Tue 07:31:19 PM 39.8814 -79.5767 228° Southwest 467 537 26,000  Level Cleveland Center
Tue 07:32:19 PM 39.7969 -79.7050 229° Southwest 467 537 26,000  Level Cleveland Center
Tue 07:33:19 PM 39.7083 -79.8303 227° Southwest 467 537 26,000 900 Level Cleveland Center
Tue 07:34:19 PM 39.6256 -79.9525 229° Southwest 462 532 27,800 1,900 Climbing Cleveland Center
Tue 07:35:19 PM 39.5408 -80.0769 229° Southwest 462 532 29,800 1,100 Climbing Cleveland Center
Tue 07:36:19 PM 39.4536 -80.1986 227° Southwest 462 532 30,000 61 Climbing Cleveland Center
Tue 07:38:35 PM 39.2461 -80.4886 227° Southwest 465 535 30,000  Level Indianapolis Center
Tue 07:39:37 PM 39.1578 -80.6125 227° Southwest 466 536 30,000  Level Indianapolis Center
Tue 07:40:39 PM 39.0697 -80.7372 228° Southwest 470 541 30,000  Level Indianapolis Center
Tue 07:41:41 PM 38.9803 -80.8606 227° Southwest 472 543 30,000  Level Indianapolis Center
Tue 07:42:42 PM 38.8953 -80.9867 229° Southwest 466 536 30,000 -49 Level Indianapolis Center
Tue 07:43:44 PM 38.8094 -81.1108 228° Southwest 465 535 29,900  Descending Indianapolis Center
Tue 07:44:46 PM 38.7272 -81.2286 228° Southwest 443 510 30,000 48 Climbing Indianapolis Center
Tue 07:45:48 PM 38.6444 -81.3461 228° Southwest 437 503 30,000  Level Indianapolis Center
Tue 07:46:49 PM 38.5603 -81.4672 228° Southwest 442 509 30,000  Level Indianapolis Center
Tue 07:47:51 PM 38.4761 -81.5908 229° Southwest 453 521 30,000  Level Indianapolis Center
Tue 07:48:53 PM 38.3644 -81.7264 224° Southwest 458 527 30,000  Level Indianapolis Center
Tue 07:49:55 PM 38.2414 -81.7922 203° Southwest 476 548 30,000  Level Indianapolis Center
Tue 07:50:56 PM 38.1064 -81.8169 188° South 488 562 30,000  Level Indianapolis Center
Tue 07:51:58 PM 37.9714 -81.8433 189° South 491 565 30,000  Level Indianapolis Center
Tue 07:53:00 PM 37.8172 -81.8728 189° South 498 573 30,000 -146 Level Indianapolis Center
Tue 07:54:01 PM 37.6800 -81.8978 188° South 497 572 29,700 -439 Descending Indianapolis Center
Tue 07:55:03 PM 37.5489 -81.9219 188° South 479 551 29,100 -339 Descending Indianapolis Center
Tue 07:56:05 PM 37.4208 -81.9456 188° South 466 536 29,000 -49 Descending Indianapolis Center
Tue 07:57:06 PM 37.2956 -81.9697 189° South 455 524 29,000  Level Indianapolis Center
Tue 07:58:08 PM 37.1700 -81.9931 188° South 453 521 29,000  Level Indianapolis Center
Tue 07:59:10 PM 37.0492 -82.0161 189° South 440 506 29,000 -146 Level Indianapolis Center
Tue 08:00:11 PM 36.9272 -82.0394 189° South 439 505 28,700 -683 Descending Indianapolis Center
Tue 08:01:13 PM 36.7858 -82.0656 188° South 437 503 27,600 -829 Descending Indianapolis Center
Tue 08:02:14 PM 36.6689 -82.0864 188° South 426 490 27,000 -466 Descending Indianapolis Center
Tue 08:02:56 PM 36.5831 -82.1022 188° South 443 510 26,800 -706 Descending Atlanta Center
Tue 08:03:56 PM 36.4689 -82.1231 188° South 430 495 25,800 -1,000 Descending Atlanta Center
Tue 08:04:56 PM 36.3597 -82.0819 163° South 410 472 24,800 -1,150 Descending Atlanta Center
Tue 08:05:56 PM 36.2583 -82.0122 151° Southeast 402 463 23,500 -1,700 Descending Atlanta Center
Tue 08:06:56 PM 36.1572 -81.9481 153° Southeast 402 463 21,400 -2,000 Descending Atlanta Center
Tue 08:07:56 PM 36.0581 -81.8811 151° Southeast 408 470 19,500 -1,800 Descending Atlanta Center
Tue 08:08:56 PM 35.9611 -81.8172 152° Southeast 401 461 17,800 -1,350 Descending Atlanta Center
Tue 08:09:56 PM 35.8700 -81.7503 149° Southeast 391 450 16,800 -1,282 Descending Atlanta Center
Tue 08:10:39 PM 35.8025 -81.7011 149° Southeast 376 433 15,600 -2,000 Descending Atlanta Center
Tue 08:10:56 PM 35.7811 -81.6839 147° Southeast 379 436 14,800 -2,104 Descending Atlanta Center
Tue 08:11:56 PM 35.6922 -81.6122 147° Southeast 384 442 12,900 -1,600 Descending Atlanta Center
Tue 08:12:56 PM 35.6053 -81.5483 149° Southeast 379 436 11,600 -1,050 Descending Atlanta Center
Tue 08:13:56 PM 35.5369 -81.4739 138° Southeast 352 405 10,800 -900 Descending Atlanta Center
Tue 08:14:56 PM 35.5225 -81.3722 100° East 297 342 9,800 -1,100 Descending Atlanta Center
Tue 08:15:56 PM 35.4992 -81.2708 106° East 297 342 8,600 -1,450 Descending Atlanta Center
Tue 08:16:56 PM 35.4822 -81.1694 102° East 302 348 6,900 -1,450 Descending Atlanta Center
Tue 08:17:56 PM 35.4675 -81.0731 101° East 291 335 5,700 -950 Descending Atlanta Center
Tue 08:18:56 PM 35.4264 -81.0108 129° Southeast 233 268 5,000 -1,023 Descending Atlanta Center
Tue 08:20:05 PM 35.3611 -80.9828 161° South 206 237 3,500 -1,145 Descending Atlanta Center
Tue 08:21:07 PM 35.3067 -80.9772 175° South 194 223 2,500 -984 Descending Atlanta Center
Tue 08:22:07 PM 35.2606 -80.9739 177° South 160 184 1,500 -1,000 Descending Atlanta Center
Tue 08:24:00 PM 35.2137 -80.9491 170° South  Level Estimated
Tue 08:31:00 PM 35.2137 -80.9491 170° South  Level Estimated

Login

Don't have an account? Register now (free) for customized features, flight alerts, and more!